• Join FlightAware (Why Join?)
  • Login
  • US Flag 
08:39AM EDT


 

Airport Tracker/Info


-or-


 

Live Flight TrackerFlight Track Log ✈ SWA303 ✈ 28-Apr-2013 ✈ KDEN - KIAD

Flight Track Log - Related Links

Times and Time Zones

All times are in EDT time to prevent confusion due to time zone crossing. See the SWA303 flight status page for this flight to view local times or setup timezone preferences in your user account.

Time Position Orientation Groundspeed Altitude Reporting Facility
EDT Latitude Longitude Course Direction KTS MPH feet Rate Location/Type
02:40PM 39.9167 -104.6667 62° Northeast 190 219 6,800  Level Denver TRACON
02:41PM 39.9500 -104.5833 62° Northeast 241 277 8,700 1,560 Climbing Denver TRACON
02:42PM 39.9500 -104.4833 90° East 295 339 10,000 1,380 Climbing Denver TRACON
02:43PM 39.9500 -104.3667 90° East 354 407 11,500 1,800 Climbing Denver TRACON
02:44PM 39.9336 -104.2475 100° East 374 430 13,500 2,580 Climbing Denver Center
02:45PM 39.9192 -104.0908 97° East 405 466 16,500 2,700 Climbing Denver Center
02:46PM 39.9042 -103.9406 97° East 421 484 19,100 2,460 Climbing Denver Center
02:47PM 39.8875 -103.7742 97° East 433 498 21,700 2,280 Climbing Denver Center
02:48PM 39.8969 -103.6175 85° East 444 511 23,900 1,980 Climbing Denver Center
02:49PM 39.9167 -103.4522 81° East 456 525 25,900 1,800 Climbing Denver Center
02:50PM 39.9353 -103.2811 82° East 470 541 27,700 1,620 Climbing Denver Center
02:51PM 39.9536 -103.1056 82° East 484 557 29,300 1,740 Climbing Denver Center
02:52PM 39.9722 -102.9308 82° East 482 555 31,300 1,980 Climbing Denver Center
02:53PM 39.9917 -102.7272 83° East 482 555 33,400 1,800 Climbing Denver Center
02:54PM 40.0083 -102.5700 82° East 475 547 35,100 1,620 Climbing Denver Center
02:55PM 40.0250 -102.3856 83° East 459 528 36,800 900 Climbing Denver Center
02:56PM 40.0397 -102.2264 83° East 462 532 37,000 60 Climbing Denver Center
02:57PM 40.0561 -102.0397 83° East 465 535 37,000  Level Denver Center
02:58PM 40.0708 -101.8800 83° East 463 533 37,000  Level Denver Center
02:59PM 40.0872 -101.6922 83° East 467 537 37,000  Level Denver Center
03:00PM 40.1006 -101.5308 84° East 468 539 37,000  Level Denver Center
03:01PM 40.1175 -101.3433 83° East 467 537 37,000  Level Denver Center
03:02PM 40.1297 -101.1850 84° East 463 533 37,000  Level Denver Center
03:03PM 40.1458 -101.0014 83° East 458 527 37,000 360 Level Denver Center
03:04PM 40.1578 -100.8411 84° East 463 533 37,800 720 Climbing Denver Center
03:06PM 40.1708 -100.6814 84° East 464 534 38,700 480 Climbing Denver Center
03:07PM 40.1872 -100.4711 84° East 460 529 39,000 120 Climbing Denver Center
03:08PM 40.2017 -100.2858 84° East 461 531 39,000  Level Denver Center
03:09PM 40.2128 -100.1250 85° East 465 535 39,000  Level Denver Center
03:10PM 40.2261 -99.9392 85° East 463 533 39,000  Level Denver Center
03:11PM 40.2389 -99.7644 84° East 462 532 39,000  Level Denver Center
03:12PM 40.2508 -99.5989 85° East 460 529 39,000  Level Denver Center
03:13PM 40.2614 -99.4322 85° East 460 529 39,000  Level Denver Center
03:14PM 40.2736 -99.2675 84° East 457 526 39,000  Level Denver Center
03:15PM 40.2839 -99.1017 85° East 459 528 39,000  Level Denver Center
03:16PM 40.2964 -98.9028 85° East 459 528 39,000  Level Denver Center
03:17PM 40.3058 -98.7689 85° East 463 533 39,000  Level Minneapolis Center
03:18PM 40.3158 -98.6006 85° East 465 535 39,000  Level Minneapolis Center
03:19PM 40.3267 -98.3961 86° East 470 541 39,000  Level Minneapolis Center
03:20PM 40.3369 -98.2253 85° East 472 543 39,000  Level Minneapolis Center
03:21PM 40.3469 -98.0533 86° East 474 545 39,000  Level Minneapolis Center
03:22PM 40.3550 -97.8833 86° East 472 543 39,000  Level Minneapolis Center
03:23PM 40.3650 -97.7133 86° East 470 541 39,000  Level Minneapolis Center
03:24PM 40.3742 -97.5456 86° East 465 535 39,000  Level Minneapolis Center
03:25PM 40.3822 -97.3764 86° East 465 535 39,000  Level Minneapolis Center
03:26PM 40.3917 -97.1914 86° East 465 535 39,000  Level Minneapolis Center
03:27PM 40.3992 -97.0258 87° East 459 528 39,000  Level Minneapolis Center
03:28PM 40.4069 -96.8597 86° East 458 527 39,000  Level Minneapolis Center
03:29PM 40.4142 -96.6936 87° East 457 526 39,000  Level Minneapolis Center
03:30PM 40.4217 -96.4964 87° East 454 522 39,000  Level Minneapolis Center
03:31PM 40.4297 -96.3300 86° East 457 526 39,000  Level Minneapolis Center
03:32PM 40.4353 -96.1636 87° East 459 528 39,000  Level Minneapolis Center
03:33PM 40.4425 -95.9958 87° East 461 531 39,000  Level Minneapolis Center
03:34PM 40.4494 -95.8267 87° East 465 535 39,000  Level Minneapolis Center
03:35PM 40.4553 -95.6617 87° East 460 529 39,000  Level Minneapolis Center
03:36PM 40.4614 -95.4642 88° East 455 524 39,000  Level Minneapolis Center
03:38PM 40.4669 -95.2994 87° East 454 522 39,000  Level Minneapolis Center
03:39PM 40.4725 -95.1339 87° East 455 524 39,000  Level Minneapolis Center
03:40PM 40.4767 -94.9683 88° East 455 524 39,000  Level Minneapolis Center
03:41PM 40.4825 -94.8058 87° East 450 518 39,000  Level Minneapolis Center
03:42PM 40.4861 -94.6425 88° East 449 517 39,000  Level Minneapolis Center
03:43PM 40.4908 -94.4675 88° East 449 517 39,000  Level Minneapolis Center
03:44PM 40.4950 -94.3050 88° East 448 516 39,000  Level Minneapolis Center
03:45PM 40.4978 -94.1425 89° East 449 517 39,000  Level Minneapolis Center
03:46PM 40.5011 -93.9467 89° East 449 517 39,000  Level Minneapolis Center
03:47PM 40.5039 -93.7836 89° East 451 519 39,000  Level Minneapolis Center
03:48PM 40.5086 -93.5194 89° East 455 524 39,000  Level Chicago Center
03:49PM 40.5089 -93.4572 90° East 450 518 39,000  Level Minneapolis Center
03:50PM 40.5128 -93.2917 88° East 452 520 39,000  Level Minneapolis Center
03:50PM 40.5122 -93.2256 91° East 451 519 39,000  Level Kansas City Center
03:51PM 40.5136 -93.0617 89° East 451 519 39,000  Level Kansas City Center
03:52PM 40.5158 -92.8922 89° East 453 521 39,000  Level Kansas City Center
03:53PM 40.5181 -92.7350 89° East 451 519 39,000  Level Kansas City Center
03:54PM 40.5206 -92.5750 89° East 451 519 39,000  Level Kansas City Center
03:55PM 40.5214 -92.3797 90° East 447 514 39,000  Level Kansas City Center
03:56PM 40.5222 -92.2389 90° East 446 513 39,000  Level Kansas City Center
03:57PM 40.5233 -92.0444 90° East 444 511 39,000  Level Kansas City Center
03:58PM 40.5239 -91.8839 90° East 442 509 39,000  Level Kansas City Center
03:59PM 40.5225 -91.7231 91° East 443 510 39,000  Level Kansas City Center
04:00PM 40.5231 -91.5614 90° East 445 512 39,000  Level Kansas City Center
04:01PM 40.5236 -91.4964 89° East 446 513 39,000  Level Chicago Center
04:02PM 40.5239 -91.3022 90° East 446 513 39,000  Level Chicago Center
04:03PM 40.5236 -91.1436 90° East 452 520 39,000  Level Chicago Center
04:04PM 40.5225 -90.9775 90° East 456 525 39,000  Level Chicago Center
04:05PM 40.5214 -90.8083 90° East 462 532 39,000  Level Chicago Center
04:06PM 40.5200 -90.6403 91° East 462 532 39,000  Level Chicago Center
04:07PM 40.5175 -90.4386 91° East 462 532 39,000  Level Chicago Center
04:08PM 40.5156 -90.2700 91° East 462 532 39,000  Level Chicago Center
04:09PM 40.5128 -90.0919 91° East 462 532 39,000  Level Chicago Center
04:10PM 40.5106 -89.9222 91° East 466 536 39,000  Level Chicago Center
04:11PM 40.5072 -89.7525 91° East 468 539 39,000  Level Chicago Center
04:12PM 40.5044 -89.5836 91° East 466 536 39,000  Level Chicago Center
04:13PM 40.5006 -89.3992 92° East 460 529 39,000  Level Chicago Center
04:14PM 40.4983 -89.2322 91° East 460 529 39,000  Level Chicago Center
04:15PM 40.4953 -89.0661 91° East 458 527 39,000  Level Chicago Center
04:16PM 40.4908 -88.8656 92° East 458 527 39,000  Level Chicago Center
04:17PM 40.4869 -88.7197 92° East 461 531 39,000  Level Chicago Center
04:18PM 40.4811 -88.5197 92° East 460 529 39,000  Level Chicago Center
04:20PM 40.4775 -88.3531 92° East 462 532 39,000  Level Chicago Center
04:21PM 40.4733 -88.1853 92° East 464 534 39,000  Level Chicago Center
04:22PM 40.4686 -88.0164 92° East 467 537 39,000  Level Chicago Center
04:23PM 40.4633 -87.8472 92° East 469 540 39,000  Level Chicago Center
04:24PM 40.4572 -87.6444 92° East 468 539 39,000  Level Chicago Center
04:25PM 40.4494 -87.4742 93° East 470 541 39,000  Level Chicago Center
04:26PM 40.4436 -87.3058 93° East 472 543 39,000  Level Chicago Center
04:27PM 40.4372 -87.1331 93° East 471 542 39,000  Level Chicago Center
04:28PM 40.4289 -86.9331 93° East 469 540 39,000  Level Chicago Center
04:29PM 40.4217 -86.7614 93° East 468 539 39,000  Level Chicago Center
04:30PM 40.4147 -86.5881 93° East 470 541 39,000  Level Chicago Center
04:31PM 40.4072 -86.4156 93° East 470 541 39,000  Level Chicago Center
04:32PM 40.3989 -86.2419 94° East 472 543 39,000  Level Chicago Center
04:33PM 40.3914 -86.0664 93° East 476 548 39,000  Level Chicago Center
04:34PM 40.3814 -85.8900 94° East 480 552 39,000  Level Chicago Center
04:35PM 40.3725 -85.7125 94° East 484 557 39,000  Level Chicago Center
04:36PM 40.3617 -85.5081 94° East 479 551 39,000  Level Chicago Center
04:37PM 40.3525 -85.3311 94° East 484 557 39,000  Level Chicago Center
04:38PM 40.3478 -85.2728 96° East 479 551 39,000  Level Indianapolis Center
04:39PM 40.3378 -85.0678 94° East 479 551 39,000  Level Indianapolis Center
04:40PM 40.3278 -84.8964 94° East 477 549 39,000  Level Indianapolis Center
04:41PM 40.3167 -84.7197 95° East 480 552 39,000  Level Indianapolis Center
04:42PM 40.3064 -84.5456 94° East 475 547 39,000  Level Indianapolis Center
04:43PM 40.2964 -84.3711 94° East 476 548 39,000  Level Indianapolis Center
04:44PM 40.2858 -84.1981 95° East 473 544 39,000  Level Indianapolis Center
04:45PM 40.2728 -84.0239 96° East 476 548 39,000  Level Indianapolis Center
04:46PM 40.2592 -83.8192 95° East 478 550 39,000  Level Indianapolis Center
04:47PM 40.2472 -83.6439 95° East 476 548 39,000  Level Indianapolis Center
04:48PM 40.2347 -83.4675 95° East 478 550 39,000  Level Indianapolis Center
04:49PM 40.2222 -83.2906 95° East 480 552 39,000  Level Indianapolis Center
04:50PM 40.2086 -83.1128 96° East 482 555 39,000  Level Indianapolis Center
04:51PM 40.1961 -82.9356 95° East 484 557 39,000  Level Indianapolis Center
04:52PM 40.1822 -82.7589 96° East 483 556 39,000  Level Indianapolis Center
04:53PM 40.1686 -82.5794 96° East 488 562 39,000  Level Indianapolis Center
04:54PM 40.1542 -82.4003 96° East 491 565 39,000  Level Indianapolis Center
04:55PM 40.1397 -82.2211 96° East 494 568 39,000  Level Indianapolis Center
04:56PM 40.1222 -82.0100 96° East 496 571 39,000  Level Indianapolis Center
04:57PM 40.1067 -81.8269 96° East 501 577 39,000  Level Indianapolis Center
04:58PM 40.0914 -81.6517 96° East 500 575 39,000  Level Indianapolis Center
04:59PM 40.0617 -81.4778 103° East 488 562 39,000  Level Indianapolis Center
05:00PM 40.0114 -81.3142 112° Southeast 484 557 39,000  Level Indianapolis Center
05:01PM 39.9514 -81.1058 111° Southeast 476 548 39,000  Level Cleveland Center
05:02PM 39.9019 -80.9431 112° Southeast 476 548 39,000  Level Cleveland Center
05:03PM 39.8522 -80.7858 112° Southeast 476 548 39,000  Level Cleveland Center
05:04PM 39.8025 -80.6264 112° Southeast 471 542 39,000  Level Cleveland Center
05:05PM 39.7503 -80.4642 113° Southeast 476 548 39,000 -120 Level Cleveland Center
05:06PM 39.7019 -80.3053 112° Southeast 476 548 38,800 -1,200 Descending Cleveland Center
05:07PM 39.6514 -80.1464 112° Southeast 476 548 36,700 -2,520 Descending Cleveland Center
05:08PM 39.5986 -79.9850 113° Southeast 476 548 33,800 -2,820 Descending Cleveland Center
05:09PM 39.5792 -79.9347 117° Southeast 470 541 33,200 -2,640 Descending Washington Center
05:10PM 39.5428 -79.7817 107° East 460 529 30,500 -2,580 Descending Washington Center
05:11PM 39.5153 -79.6133 102° East 472 543 28,100 -1,740 Descending Washington Center
05:12PM 39.4872 -79.4503 103° East 472 543 27,000 -1,200 Descending Washington Center
05:13PM 39.4606 -79.3064 103° East 472 543 25,800 -1,740 Descending Washington Center
05:14PM 39.4300 -79.1436 104° East 467 537 23,600 -2,220 Descending Washington Center
05:15PM 39.4011 -78.9944 104° East 444 511 21,400 -2,100 Descending Washington Center
05:16PM 39.3758 -78.8483 103° East 433 498 19,400 -1,980 Descending Washington Center
05:17PM 39.3506 -78.7078 103° East 414 476 17,500 -2,160 Descending Washington Center
05:18PM 39.3228 -78.5589 104° East 394 453 15,200 -2,160 Descending Washington Center
05:19PM 39.2989 -78.4292 103° East 388 447 13,200 -1,980 Descending Washington Center
05:20PM 39.2600 -78.3125 113° Southeast 367 422 11,300 -1,380 Descending Washington Center
05:21PM 39.2183 -78.2117 118° Southeast 338 389 10,600 -900 Descending Washington Center
05:22PM 39.2208 -78.0992 88° East 297 342 9,600 -780 Descending Washington Center
05:23PM 39.2292 -77.9978 84° East 291 335 9,100 -780 Descending Washington Center
05:24PM 39.2764 -77.9217 51° Northeast 262 302 8,100 -1,020 Descending Washington Center
05:25PM 39.3053 -77.8367 66° East 257 296 7,100 -1,200 Descending Washington Center
05:26PM 39.3233 -77.7514 75° East 251 289 5,700 -1,380 Descending Washington Center
05:27PM 39.3100 -77.6864 105° East 211 243 4,300 -960 Descending Washington Center
05:28PM 39.2692 -77.6372 137° Southeast 185 213 3,900 -240 Descending Washington Center
05:28PM 39.2500 -77.6000 124° Southeast 203 234 4,000 -240 Climbing Potomac TRACON
05:29PM 39.2167 -77.5500 131° Southeast 201 231 3,600 -540 Descending Potomac TRACON
05:30PM 39.1833 -77.4833 123° Southeast 199 229 3,000 -300 Descending Potomac TRACON
05:31PM 39.1500 -77.4500 142° Southeast 174 200 3,000 -240 Level Potomac TRACON
05:32PM 39.1000 -77.4500 180° South 170 196 2,600 -600 Descending Potomac TRACON
05:33PM 39.0500 -77.4500 180° South 161 185 1,800 -780 Descending Potomac TRACON
05:34PM 39.0167 -77.4667 201° Southwest 127 146 1,100 -720 Descending Potomac TRACON
05:36PM 38.9474 -77.4599 165° South  Level Estimated
05:43PM 38.9474 -77.4599 165° South  Level Estimated